sensor_id;sensor_type;location;lat;lon;timestamp;pressure;altitude;pressure_sealevel;temperature;humidity
62847;BME280;49477;35.676;139.586;2023-06-24T00:01:58;100874.13;;;30.37;38.37
62847;BME280;49477;35.676;139.586;2023-06-24T00:04:27;100880.58;;;30.70;38.38
62847;BME280;49477;35.676;139.586;2023-06-24T00:06:57;100883.43;;;30.32;38.49
62847;BME280;49477;35.676;139.586;2023-06-24T00:09:27;100884.60;;;30.57;38.55
62847;BME280;49477;35.676;139.586;2023-06-24T00:11:57;100882.38;;;30.64;38.68
62847;BME280;49477;35.676;139.586;2023-06-24T00:14:27;100877.08;;;30.95;38.59
62847;BME280;49477;35.676;139.586;2023-06-24T00:16:56;100877.21;;;30.52;38.65
62847;BME280;49477;35.676;139.586;2023-06-24T00:19:31;100876.33;;;31.01;38.72
62847;BME280;49477;35.676;139.586;2023-06-24T00:22:00;100876.50;;;30.89;38.45
62847;BME280;49477;35.676;139.586;2023-06-24T00:24:30;100875.98;;;30.58;38.48
62847;BME280;49477;35.676;139.586;2023-06-24T00:26:59;100875.93;;;30.93;38.41
62847;BME280;49477;35.676;139.586;2023-06-24T00:29:28;100879.05;;;31.02;38.21
62847;BME280;49477;35.676;139.586;2023-06-24T00:31:58;100871.99;;;30.70;38.11
62847;BME280;49477;35.676;139.586;2023-06-24T00:34:27;100863.26;;;30.77;38.08
62847;BME280;49477;35.676;139.586;2023-06-24T00:36:57;100862.99;;;30.63;38.10
62847;BME280;49477;35.676;139.586;2023-06-24T00:39:26;100861.35;;;30.96;38.01
62847;BME280;49477;35.676;139.586;2023-06-24T00:41:56;100858.24;;;30.98;38.01
62847;BME280;49477;35.676;139.586;2023-06-24T00:44:25;100855.56;;;30.96;38.00
62847;BME280;49477;35.676;139.586;2023-06-24T00:46:55;100858.31;;;30.95;38.09
62847;BME280;49477;35.676;139.586;2023-06-24T00:49:25;100866.24;;;31.09;37.99
62847;BME280;49477;35.676;139.586;2023-06-24T00:51:54;100869.70;;;31.07;38.24
62847;BME280;49477;35.676;139.586;2023-06-24T00:54:24;100868.52;;;31.09;38.10
62847;BME280;49477;35.676;139.586;2023-06-24T00:56:53;100866.10;;;30.70;38.02
62847;BME280;49477;35.676;139.586;2023-06-24T00:59:23;100864.50;;;31.15;37.72
62847;BME280;49477;35.676;139.586;2023-06-24T01:01:52;100863.37;;;30.88;37.65
62847;BME280;49477;35.676;139.586;2023-06-24T01:04:22;100861.44;;;31.48;37.39
62847;BME280;49477;35.676;139.586;2023-06-24T01:06:51;100860.25;;;31.13;37.26
62847;BME280;49477;35.676;139.586;2023-06-24T01:09:21;100862.73;;;31.39;37.08
62847;BME280;49477;35.676;139.586;2023-06-24T01:11:51;100857.58;;;31.43;36.94
62847;BME280;49477;35.676;139.586;2023-06-24T01:14:20;100855.42;;;31.24;36.91
62847;BME280;49477;35.676;139.586;2023-06-24T01:16:55;100854.06;;;31.02;36.78
62847;BME280;49477;35.676;139.586;2023-06-24T01:19:47;100857.13;;;31.17;36.75
62847;BME280;49477;35.676;139.586;2023-06-24T01:22:42;100857.99;;;31.80;36.75
62847;BME280;49477;35.676;139.586;2023-06-24T01:25:28;100855.39;;;31.37;36.86
62847;BME280;49477;35.676;139.586;2023-06-24T01:28:27;100849.71;;;31.50;36.53
62847;BME280;49477;35.676;139.586;2023-06-24T01:31:43;100847.90;;;31.71;36.63
62847;BME280;49477;35.676;139.586;2023-06-24T01:34:24;100848.83;;;32.02;36.67
62847;BME280;49477;35.676;139.586;2023-06-24T01:37:03;100851.66;;;31.81;36.74
62847;BME280;49477;35.676;139.586;2023-06-24T01:39:37;100845.51;;;32.13;36.63
62847;BME280;49477;35.676;139.586;2023-06-24T01:42:10;100844.61;;;32.04;36.57
62847;BME280;49477;35.676;139.586;2023-06-24T01:44:42;100848.37;;;31.85;36.49
62847;BME280;49477;35.676;139.586;2023-06-24T01:47:12;100850.08;;;32.16;36.56
62847;BME280;49477;35.676;139.586;2023-06-24T01:49:45;100850.92;;;31.79;36.27
62847;BME280;49477;35.676;139.586;2023-06-24T01:52:15;100843.61;;;31.67;36.49
62847;BME280;49477;35.676;139.586;2023-06-24T01:54:46;100841.03;;;31.81;37.11
62847;BME280;49477;35.676;139.586;2023-06-24T01:57:18;100841.11;;;31.86;36.88
62847;BME280;49477;35.676;139.586;2023-06-24T01:59:50;100841.20;;;31.81;36.83
62847;BME280;49477;35.676;139.586;2023-06-24T02:02:20;100842.00;;;31.91;36.81
62847;BME280;49477;35.676;139.586;2023-06-24T02:04:50;100841.90;;;31.88;36.92
62847;BME280;49477;35.676;139.586;2023-06-24T02:07:22;100838.49;;;32.19;36.71
62847;BME280;49477;35.676;139.586;2023-06-24T02:09:53;100838.48;;;31.65;36.40
62847;BME280;49477;35.676;139.586;2023-06-24T02:12:24;100841.78;;;32.31;36.34
62847;BME280;49477;35.676;139.586;2023-06-24T02:14:55;100847.93;;;32.23;36.16
62847;BME280;49477;35.676;139.586;2023-06-24T02:17:26;100846.51;;;32.54;36.05
62847;BME280;49477;35.676;139.586;2023-06-24T02:19:56;100847.13;;;32.30;36.11
62847;BME280;49477;35.676;139.586;2023-06-24T02:22:26;100836.24;;;32.07;35.54
62847;BME280;49477;35.676;139.586;2023-06-24T02:24:56;100835.01;;;32.02;35.59
62847;BME280;49477;35.676;139.586;2023-06-24T02:27:25;100834.40;;;32.64;35.43
62847;BME280;49477;35.676;139.586;2023-06-24T02:29:56;100829.95;;;32.43;35.43
62847;BME280;49477;35.676;139.586;2023-06-24T02:32:26;100826.51;;;32.32;35.50
62847;BME280;49477;35.676;139.586;2023-06-24T02:34:57;100820.91;;;32.26;35.83
62847;BME280;49477;35.676;139.586;2023-06-24T02:37:26;100815.76;;;32.33;35.94
62847;BME280;49477;35.676;139.586;2023-06-24T02:39:56;100813.57;;;32.55;35.71
62847;BME280;49477;35.676;139.586;2023-06-24T02:42:25;100817.46;;;32.72;35.80
62847;BME280;49477;35.676;139.586;2023-06-24T02:44:55;100816.73;;;32.12;35.73
62847;BME280;49477;35.676;139.586;2023-06-24T02:47:24;100814.77;;;32.77;35.49
62847;BME280;49477;35.676;139.586;2023-06-24T02:49:55;100811.96;;;32.44;35.84
62847;BME280;49477;35.676;139.586;2023-06-24T02:52:25;100812.52;;;32.46;35.58
62847;BME280;49477;35.676;139.586;2023-06-24T02:54:54;100816.05;;;32.43;35.78
62847;BME280;49477;35.676;139.586;2023-06-24T02:57:24;100815.98;;;32.62;35.74
62847;BME280;49477;35.676;139.586;2023-06-24T02:59:54;100810.60;;;32.39;35.80
62847;BME280;49477;35.676;139.586;2023-06-24T03:02:24;100806.40;;;32.94;35.55
62847;BME280;49477;35.676;139.586;2023-06-24T03:04:53;100811.37;;;32.28;35.68
62847;BME280;49477;35.676;139.586;2023-06-24T03:07:23;100804.33;;;32.44;35.62
62847;BME280;49477;35.676;139.586;2023-06-24T03:09:52;100812.38;;;32.79;35.89
62847;BME280;49477;35.676;139.586;2023-06-24T03:12:22;100809.71;;;32.76;36.01
62847;BME280;49477;35.676;139.586;2023-06-24T03:14:51;100809.87;;;32.54;35.68
62847;BME280;49477;35.676;139.586;2023-06-24T03:17:20;100804.78;;;32.85;35.42
62847;BME280;49477;35.676;139.586;2023-06-24T03:19:49;100807.31;;;32.43;35.44
62847;BME280;49477;35.676;139.586;2023-06-24T03:22:18;100810.68;;;32.97;35.34
62847;BME280;49477;35.676;139.586;2023-06-24T03:24:47;100810.74;;;32.61;35.12
62847;BME280;49477;35.676;139.586;2023-06-24T03:27:16;100807.39;;;32.79;34.99
62847;BME280;49477;35.676;139.586;2023-06-24T03:29:46;100803.64;;;32.64;35.03
62847;BME280;49477;35.676;139.586;2023-06-24T03:32:15;100802.95;;;33.25;34.88
62847;BME280;49477;35.676;139.586;2023-06-24T03:34:45;100799.65;;;32.74;34.61
62847;BME280;49477;35.676;139.586;2023-06-24T03:37:14;100797.86;;;33.04;34.51
62847;BME280;49477;35.676;139.586;2023-06-24T03:39:44;100802.79;;;33.01;34.58
62847;BME280;49477;35.676;139.586;2023-06-24T03:42:13;100802.76;;;33.14;34.58
62847;BME280;49477;35.676;139.586;2023-06-24T03:44:43;100803.76;;;33.12;34.40
62847;BME280;49477;35.676;139.586;2023-06-24T03:47:12;100807.67;;;33.12;34.23
62847;BME280;49477;35.676;139.586;2023-06-24T03:49:42;100811.69;;;33.25;34.11
62847;BME280;49477;35.676;139.586;2023-06-24T03:52:11;100815.26;;;32.74;34.22
62847;BME280;49477;35.676;139.586;2023-06-24T03:54:40;100814.55;;;33.01;34.31
62847;BME280;49477;35.676;139.586;2023-06-24T03:57:09;100808.57;;;32.64;34.18
62847;BME280;49477;35.676;139.586;2023-06-24T03:59:38;100803.26;;;33.20;33.94
62847;BME280;49477;35.676;139.586;2023-06-24T04:02:08;100797.81;;;32.90;33.89
62847;BME280;49477;35.676;139.586;2023-06-24T04:04:37;100797.56;;;32.95;33.78
62847;BME280;49477;35.676;139.586;2023-06-24T04:07:06;100799.74;;;32.95;34.05
62847;BME280;49477;35.676;139.586;2023-06-24T04:09:35;100795.22;;;33.13;33.90
62847;BME280;49477;35.676;139.586;2023-06-24T04:12:05;100797.57;;;32.96;34.52
62847;BME280;49477;35.676;139.586;2023-06-24T04:14:34;100794.63;;;33.51;33.82
62847;BME280;49477;35.676;139.586;2023-06-24T04:17:03;100796.39;;;33.15;33.83
62847;BME280;49477;35.676;139.586;2023-06-24T04:19:33;100796.22;;;33.19;33.78
62847;BME280;49477;35.676;139.586;2023-06-24T04:22:03;100789.56;;;33.12;33.53
62847;BME280;49477;35.676;139.586;2023-06-24T04:24:32;100785.68;;;33.51;33.58
62847;BME280;49477;35.676;139.586;2023-06-24T04:27:02;100792.70;;;33.36;33.91
62847;BME280;49477;35.676;139.586;2023-06-24T04:29:32;100791.29;;;32.99;33.97
62847;BME280;49477;35.676;139.586;2023-06-24T04:32:02;100797.47;;;33.08;34.43
62847;BME280;49477;35.676;139.586;2023-06-24T04:34:31;100803.23;;;33.07;33.87
62847;BME280;49477;35.676;139.586;2023-06-24T04:37:00;100803.17;;;33.12;33.95
62847;BME280;49477;35.676;139.586;2023-06-24T04:39:31;100804.39;;;33.23;34.04
62847;BME280;49477;35.676;139.586;2023-06-24T04:42:00;100809.47;;;33.37;33.86
62847;BME280;49477;35.676;139.586;2023-06-24T04:44:30;100809.66;;;33.42;33.58
62847;BME280;49477;35.676;139.586;2023-06-24T04:46:59;100815.13;;;33.37;33.84
62847;BME280;49477;35.676;139.586;2023-06-24T04:49:28;100812.67;;;33.26;33.80
62847;BME280;49477;35.676;139.586;2023-06-24T04:52:00;100813.03;;;33.28;33.97
62847;BME280;49477;35.676;139.586;2023-06-24T04:54:28;100812.36;;;33.29;33.39
62847;BME280;49477;35.676;139.586;2023-06-24T04:56:58;100803.44;;;33.32;33.48
62847;BME280;49477;35.676;139.586;2023-06-24T04:59:27;100798.42;;;33.35;33.46
62847;BME280;49477;35.676;139.586;2023-06-24T05:01:57;100796.57;;;33.29;33.36
62847;BME280;49477;35.676;139.586;2023-06-24T05:04:26;100799.82;;;33.50;33.20
62847;BME280;49477;35.676;139.586;2023-06-24T05:06:56;100807.47;;;33.64;33.10
62847;BME280;49477;35.676;139.586;2023-06-24T05:09:25;100809.56;;;33.03;33.40
62847;BME280;49477;35.676;139.586;2023-06-24T05:11:54;100806.44;;;33.61;33.15
62847;BME280;49477;35.676;139.586;2023-06-24T05:14:23;100798.53;;;33.41;33.19
62847;BME280;49477;35.676;139.586;2023-06-24T05:16:53;100796.93;;;33.49;33.32
62847;BME280;49477;35.676;139.586;2023-06-24T05:19:22;100789.59;;;33.43;33.22
62847;BME280;49477;35.676;139.586;2023-06-24T05:21:51;100785.62;;;33.31;32.45
62847;BME280;49477;35.676;139.586;2023-06-24T05:24:20;100790.85;;;33.42;33.52
62847;BME280;49477;35.676;139.586;2023-06-24T05:26:50;100791.08;;;33.44;33.29
62847;BME280;49477;35.676;139.586;2023-06-24T05:29:19;100780.84;;;33.48;32.57
62847;BME280;49477;35.676;139.586;2023-06-24T05:31:49;100788.35;;;33.14;33.25
62847;BME280;49477;35.676;139.586;2023-06-24T05:34:18;100786.97;;;33.48;32.70
62847;BME280;49477;35.676;139.586;2023-06-24T05:36:47;100794.13;;;33.32;32.78
62847;BME280;49477;35.676;139.586;2023-06-24T05:39:16;100799.10;;;33.72;32.72
62847;BME280;49477;35.676;139.586;2023-06-24T05:41:46;100795.73;;;33.51;32.43
62847;BME280;49477;35.676;139.586;2023-06-24T05:44:14;100793.51;;;33.72;32.21
62847;BME280;49477;35.676;139.586;2023-06-24T05:46:44;100796.16;;;33.78;32.70
62847;BME280;49477;35.676;139.586;2023-06-24T05:49:13;100797.40;;;33.88;32.99
62847;BME280;49477;35.676;139.586;2023-06-24T05:51:42;100788.56;;;33.96;32.31
62847;BME280;49477;35.676;139.586;2023-06-24T05:54:12;100780.49;;;33.95;32.18
62847;BME280;49477;35.676;139.586;2023-06-24T05:56:41;100785.20;;;34.12;32.44
62847;BME280;49477;35.676;139.586;2023-06-24T05:59:10;100787.72;;;34.33;32.37
62847;BME280;49477;35.676;139.586;2023-06-24T06:01:39;100794.45;;;33.80;32.00
62847;BME280;49477;35.676;139.586;2023-06-24T06:04:09;100799.59;;;34.07;32.36
62847;BME280;49477;35.676;139.586;2023-06-24T06:06:38;100796.32;;;34.09;32.10
62847;BME280;49477;35.676;139.586;2023-06-24T06:09:08;100801.00;;;33.92;32.51
62847;BME280;49477;35.676;139.586;2023-06-24T06:11:38;100802.90;;;34.11;31.50
62847;BME280;49477;35.676;139.586;2023-06-24T06:14:07;100793.22;;;33.75;32.37
62847;BME280;49477;35.676;139.586;2023-06-24T06:16:37;100780.63;;;34.10;32.18
62847;BME280;49477;35.676;139.586;2023-06-24T06:19:06;100788.67;;;34.17;32.77
62847;BME280;49477;35.676;139.586;2023-06-24T06:21:37;100786.29;;;34.11;32.01
62847;BME280;49477;35.676;139.586;2023-06-24T06:24:07;100790.02;;;34.17;32.46
62847;BME280;49477;35.676;139.586;2023-06-24T06:26:41;100787.96;;;34.30;32.11
62847;BME280;49477;35.676;139.586;2023-06-24T06:29:10;100792.40;;;34.32;32.93
62847;BME280;49477;35.676;139.586;2023-06-24T06:31:39;100793.87;;;34.34;31.95
62847;BME280;49477;35.676;139.586;2023-06-24T06:34:08;100786.68;;;34.29;32.13
62847;BME280;49477;35.676;139.586;2023-06-24T06:36:37;100783.01;;;33.70;32.03
62847;BME280;49477;35.676;139.586;2023-06-24T06:39:06;100786.78;;;34.14;31.84
62847;BME280;49477;35.676;139.586;2023-06-24T06:41:36;100794.47;;;34.22;31.98
62847;BME280;49477;35.676;139.586;2023-06-24T06:44:05;100788.02;;;34.07;32.13
62847;BME280;49477;35.676;139.586;2023-06-24T06:46:35;100788.72;;;34.31;32.16
62847;BME280;49477;35.676;139.586;2023-06-24T06:49:04;100793.64;;;33.97;31.98
62847;BME280;49477;35.676;139.586;2023-06-24T06:51:33;100793.09;;;34.10;32.39
62847;BME280;49477;35.676;139.586;2023-06-24T06:54:02;100787.53;;;33.86;32.72
62847;BME280;49477;35.676;139.586;2023-06-24T06:56:31;100791.50;;;34.00;32.93
62847;BME280;49477;35.676;139.586;2023-06-24T06:59:00;100790.54;;;34.17;33.04
62847;BME280;49477;35.676;139.586;2023-06-24T07:01:29;100789.08;;;33.98;32.90
62847;BME280;49477;35.676;139.586;2023-06-24T07:03:58;100789.59;;;33.78;33.13
62847;BME280;49477;35.676;139.586;2023-06-24T07:06:27;100782.47;;;33.64;33.27
62847;BME280;49477;35.676;139.586;2023-06-24T07:08:57;100782.86;;;33.68;32.93
62847;BME280;49477;35.676;139.586;2023-06-24T07:11:26;100782.17;;;33.78;33.18
62847;BME280;49477;35.676;139.586;2023-06-24T07:13:55;100780.74;;;33.50;33.09
62847;BME280;49477;35.676;139.586;2023-06-24T07:16:24;100778.63;;;33.95;33.22
62847;BME280;49477;35.676;139.586;2023-06-24T07:18:54;100778.37;;;34.05;33.21
62847;BME280;49477;35.676;139.586;2023-06-24T07:21:23;100786.89;;;33.82;33.30
62847;BME280;49477;35.676;139.586;2023-06-24T07:23:52;100787.60;;;33.49;33.44
62847;BME280;49477;35.676;139.586;2023-06-24T07:26:21;100784.53;;;34.12;33.45
62847;BME280;49477;35.676;139.586;2023-06-24T07:28:50;100780.80;;;33.45;33.52
62847;BME280;49477;35.676;139.586;2023-06-24T07:31:20;100779.94;;;33.89;33.91
62847;BME280;49477;35.676;139.586;2023-06-24T07:33:49;100771.80;;;33.90;33.74
62847;BME280;49477;35.676;139.586;2023-06-24T07:36:18;100770.20;;;33.74;33.86
62847;BME280;49477;35.676;139.586;2023-06-24T07:38:48;100771.59;;;33.15;33.90
62847;BME280;49477;35.676;139.586;2023-06-24T07:41:17;100768.51;;;33.62;33.73
62847;BME280;49477;35.676;139.586;2023-06-24T07:43:47;100768.00;;;33.51;33.46
62847;BME280;49477;35.676;139.586;2023-06-24T07:46:16;100768.48;;;33.59;33.59
62847;BME280;49477;35.676;139.586;2023-06-24T07:48:45;100765.12;;;33.47;33.54
62847;BME280;49477;35.676;139.586;2023-06-24T07:51:14;100764.33;;;33.25;33.70
62847;BME280;49477;35.676;139.586;2023-06-24T07:53:44;100765.28;;;33.26;33.66
62847;BME280;49477;35.676;139.586;2023-06-24T07:56:14;100770.81;;;33.73;33.71
62847;BME280;49477;35.676;139.586;2023-06-24T07:58:43;100768.10;;;33.75;33.52
62847;BME280;49477;35.676;139.586;2023-06-24T08:01:13;100776.12;;;33.85;33.56
62847;BME280;49477;35.676;139.586;2023-06-24T08:03:43;100772.99;;;33.56;33.81
62847;BME280;49477;35.676;139.586;2023-06-24T08:06:12;100766.20;;;33.47;33.96
62847;BME280;49477;35.676;139.586;2023-06-24T08:08:41;100767.61;;;33.75;33.72
62847;BME280;49477;35.676;139.586;2023-06-24T08:11:10;100769.06;;;33.57;33.83
62847;BME280;49477;35.676;139.586;2023-06-24T08:13:39;100770.14;;;33.69;34.09
62847;BME280;49477;35.676;139.586;2023-06-24T08:16:08;100772.73;;;33.49;33.73
62847;BME280;49477;35.676;139.586;2023-06-24T08:18:37;100781.03;;;33.60;33.47
62847;BME280;49477;35.676;139.586;2023-06-24T08:21:06;100778.65;;;33.51;33.62
62847;BME280;49477;35.676;139.586;2023-06-24T08:23:35;100782.00;;;33.39;33.16
62847;BME280;49477;35.676;139.586;2023-06-24T08:26:04;100790.79;;;33.57;33.42
62847;BME280;49477;35.676;139.586;2023-06-24T08:28:34;100794.74;;;33.59;33.66
62847;BME280;49477;35.676;139.586;2023-06-24T08:31:03;100797.38;;;33.45;33.73
62847;BME280;49477;35.676;139.586;2023-06-24T08:33:33;100790.91;;;33.61;33.75
62847;BME280;49477;35.676;139.586;2023-06-24T08:36:02;100785.22;;;33.41;34.04
62847;BME280;49477;35.676;139.586;2023-06-24T08:38:31;100794.15;;;33.56;33.97
62847;BME280;49477;35.676;139.586;2023-06-24T08:41:00;100799.85;;;33.80;33.96
62847;BME280;49477;35.676;139.586;2023-06-24T08:43:29;100804.95;;;33.55;34.00
62847;BME280;49477;35.676;139.586;2023-06-24T08:45:58;100808.66;;;33.54;34.15
62847;BME280;49477;35.676;139.586;2023-06-24T08:48:28;100808.72;;;33.72;34.13
62847;BME280;49477;35.676;139.586;2023-06-24T08:50:59;100805.82;;;33.35;34.27
62847;BME280;49477;35.676;139.586;2023-06-24T08:53:30;100799.79;;;33.13;34.83
62847;BME280;49477;35.676;139.586;2023-06-24T08:55:59;100800.70;;;32.99;35.03
62847;BME280;49477;35.676;139.586;2023-06-24T08:58:29;100803.36;;;33.12;34.83
62847;BME280;49477;35.676;139.586;2023-06-24T09:00:58;100804.56;;;33.25;34.95
62847;BME280;49477;35.676;139.586;2023-06-24T09:03:28;100807.06;;;33.28;35.30
62847;BME280;49477;35.676;139.586;2023-06-24T09:05:58;100812.54;;;33.41;35.13
62847;BME280;49477;35.676;139.586;2023-06-24T09:08:26;100818.17;;;33.07;35.82
62847;BME280;49477;35.676;139.586;2023-06-24T09:10:56;100822.99;;;32.75;36.18
62847;BME280;49477;35.676;139.586;2023-06-24T09:13:34;100828.32;;;32.97;35.96
62847;BME280;49477;35.676;139.586;2023-06-24T09:16:13;100833.93;;;33.01;35.81
62847;BME280;49477;35.676;139.586;2023-06-24T09:18:48;100837.85;;;33.20;35.60
62847;BME280;49477;35.676;139.586;2023-06-24T09:21:25;100838.50;;;32.94;35.88
62847;BME280;49477;35.676;139.586;2023-06-24T09:23:55;100838.00;;;32.52;36.06
62847;BME280;49477;35.676;139.586;2023-06-24T09:26:26;100843.04;;;33.05;35.84
62847;BME280;49477;35.676;139.586;2023-06-24T09:28:56;100839.54;;;32.72;36.17
62847;BME280;49477;35.676;139.586;2023-06-24T09:31:26;100840.28;;;32.74;36.10
62847;BME280;49477;35.676;139.586;2023-06-24T09:33:57;100837.38;;;32.89;36.36
62847;BME280;49477;35.676;139.586;2023-06-24T09:36:27;100833.23;;;32.98;36.43
62847;BME280;49477;35.676;139.586;2023-06-24T09:38:56;100834.80;;;32.53;36.69
62847;BME280;49477;35.676;139.586;2023-06-24T09:41:34;100836.32;;;32.71;36.85
62847;BME280;49477;35.676;139.586;2023-06-24T09:44:11;100836.56;;;31.94;37.13
62847;BME280;49477;35.676;139.586;2023-06-24T09:46:42;100842.41;;;32.30;37.38
62847;BME280;49477;35.676;139.586;2023-06-24T09:49:12;100848.70;;;31.81;37.59
62847;BME280;49477;35.676;139.586;2023-06-24T09:51:47;100850.02;;;32.43;37.54
62847;BME280;49477;35.676;139.586;2023-06-24T09:54:17;100844.55;;;32.15;37.52
62847;BME280;49477;35.676;139.586;2023-06-24T09:56:49;100842.52;;;31.55;37.85
62847;BME280;49477;35.676;139.586;2023-06-24T09:59:20;100845.03;;;31.98;37.80
62847;BME280;49477;35.676;139.586;2023-06-24T10:01:52;100849.22;;;31.67;37.67
62847;BME280;49477;35.676;139.586;2023-06-24T10:04:22;100849.88;;;31.93;37.97
62847;BME280;49477;35.676;139.586;2023-06-24T10:06:53;100844.17;;;31.87;37.97
62847;BME280;49477;35.676;139.586;2023-06-24T10:09:23;100844.12;;;32.20;37.87
62847;BME280;49477;35.676;139.586;2023-06-24T10:11:52;100850.66;;;31.83;38.18
62847;BME280;49477;35.676;139.586;2023-06-24T10:14:22;100849.42;;;31.38;38.58
62847;BME280;49477;35.676;139.586;2023-06-24T10:16:51;100849.86;;;31.22;38.46
62847;BME280;49477;35.676;139.586;2023-06-24T10:19:21;100855.87;;;31.37;38.72
62847;BME280;49477;35.676;139.586;2023-06-24T10:21:53;100859.97;;;31.36;38.69
62847;BME280;49477;35.676;139.586;2023-06-24T10:24:39;100859.79;;;31.23;38.92
62847;BME280;49477;35.676;139.586;2023-06-24T10:27:14;100859.24;;;31.22;39.04
62847;BME280;49477;35.676;139.586;2023-06-24T10:29:47;100859.71;;;31.59;38.70
62847;BME280;49477;35.676;139.586;2023-06-24T10:32:18;100867.48;;;31.47;38.66
62847;BME280;49477;35.676;139.586;2023-06-24T10:34:54;100869.84;;;31.59;38.23
62847;BME280;49477;35.676;139.586;2023-06-24T10:37:24;100873.54;;;31.44;38.76
62847;BME280;49477;35.676;139.586;2023-06-24T10:40:00;100877.49;;;31.37;38.94
62847;BME280;49477;35.676;139.586;2023-06-24T10:42:32;100880.54;;;31.16;39.11
62847;BME280;49477;35.676;139.586;2023-06-24T10:45:12;100882.42;;;31.23;38.90
62847;BME280;49477;35.676;139.586;2023-06-24T10:47:43;100884.74;;;31.27;39.01
62847;BME280;49477;35.676;139.586;2023-06-24T10:50:15;100888.54;;;30.99;39.35
62847;BME280;49477;35.676;139.586;2023-06-24T10:52:45;100895.41;;;31.11;39.57
62847;BME280;49477;35.676;139.586;2023-06-24T10:55:17;100904.71;;;31.02;39.27
62847;BME280;49477;35.676;139.586;2023-06-24T10:57:46;100911.61;;;31.41;38.90
62847;BME280;49477;35.676;139.586;2023-06-24T11:00:16;100914.65;;;31.41;39.35
62847;BME280;49477;35.676;139.586;2023-06-24T11:02:45;100923.97;;;30.92;39.35
62847;BME280;49477;35.676;139.586;2023-06-24T11:05:15;100930.30;;;30.76;39.85
62847;BME280;49477;35.676;139.586;2023-06-24T11:07:44;100935.39;;;30.99;39.70
62847;BME280;49477;35.676;139.586;2023-06-24T11:10:15;100938.08;;;30.78;40.03
62847;BME280;49477;35.676;139.586;2023-06-24T11:12:45;100936.40;;;31.33;39.60
62847;BME280;49477;35.676;139.586;2023-06-24T11:15:15;100940.58;;;30.94;39.93
62847;BME280;49477;35.676;139.586;2023-06-24T11:17:45;100944.62;;;30.93;39.97
62847;BME280;49477;35.676;139.586;2023-06-24T11:20:15;100946.44;;;31.14;39.94
62847;BME280;49477;35.676;139.586;2023-06-24T11:22:45;100946.03;;;30.88;39.94
62847;BME280;49477;35.676;139.586;2023-06-24T11:25:20;100946.65;;;31.45;39.72
62847;BME280;49477;35.676;139.586;2023-06-24T11:27:51;100955.60;;;30.87;39.82
62847;BME280;49477;35.676;139.586;2023-06-24T11:30:20;100959.68;;;30.97;39.85
62847;BME280;49477;35.676;139.586;2023-06-24T11:32:49;100958.71;;;30.58;39.98
62847;BME280;49477;35.676;139.586;2023-06-24T11:35:19;100957.21;;;30.97;40.01
62847;BME280;49477;35.676;139.586;2023-06-24T11:37:48;100958.08;;;30.48;40.08
62847;BME280;49477;35.676;139.586;2023-06-24T11:40:20;100954.60;;;30.62;40.21
62847;BME280;49477;35.676;139.586;2023-06-24T11:42:49;100953.49;;;30.61;39.95
62847;BME280;49477;35.676;139.586;2023-06-24T11:45:21;100952.98;;;31.25;39.73
62847;BME280;49477;35.676;139.586;2023-06-24T11:47:50;100953.75;;;30.50;39.94
62847;BME280;49477;35.676;139.586;2023-06-24T11:50:26;100957.74;;;30.91;40.13
62847;BME280;49477;35.676;139.586;2023-06-24T11:52:56;100964.74;;;30.35;40.53
62847;BME280;49477;35.676;139.586;2023-06-24T11:55:25;100967.51;;;30.87;40.35
62847;BME280;49477;35.676;139.586;2023-06-24T11:57:57;100966.29;;;30.38;40.44
62847;BME280;49477;35.676;139.586;2023-06-24T12:00:28;100970.07;;;30.89;40.46
62847;BME280;49477;35.676;139.586;2023-06-24T12:03:00;100974.27;;;30.84;40.69
62847;BME280;49477;35.676;139.586;2023-06-24T12:05:31;100979.51;;;30.61;41.13
62847;BME280;49477;35.676;139.586;2023-06-24T12:08:01;100975.40;;;30.39;41.03
62847;BME280;49477;35.676;139.586;2023-06-24T12:10:33;100973.55;;;30.83;40.92
62847;BME280;49477;35.676;139.586;2023-06-24T12:13:04;100974.41;;;30.62;41.40
62847;BME280;49477;35.676;139.586;2023-06-24T12:15:34;100976.40;;;30.48;41.67
62847;BME280;49477;35.676;139.586;2023-06-24T12:18:04;100980.91;;;30.53;41.75
62847;BME280;49477;35.676;139.586;2023-06-24T12:20:33;100979.10;;;30.40;42.06
62847;BME280;49477;35.676;139.586;2023-06-24T12:23:03;100980.46;;;30.25;41.78
62847;BME280;49477;35.676;139.586;2023-06-24T12:25:32;100981.57;;;30.52;41.85
62847;BME280;49477;35.676;139.586;2023-06-24T12:28:02;100984.05;;;30.65;41.58
62847;BME280;49477;35.676;139.586;2023-06-24T12:30:31;100992.48;;;30.07;42.70
62847;BME280;49477;35.676;139.586;2023-06-24T12:33:02;100999.31;;;29.97;42.95
62847;BME280;49477;35.676;139.586;2023-06-24T12:35:30;101001.71;;;29.93;43.05
62847;BME280;49477;35.676;139.586;2023-06-24T12:37:59;101004.03;;;29.99;42.98
62847;BME280;49477;35.676;139.586;2023-06-24T12:40:29;101000.04;;;30.19;42.69
62847;BME280;49477;35.676;139.586;2023-06-24T12:42:59;101004.69;;;29.82;43.41
62847;BME280;49477;35.676;139.586;2023-06-24T12:45:29;101004.05;;;29.90;43.34
62847;BME280;49477;35.676;139.586;2023-06-24T12:47:59;101001.82;;;30.75;43.50